Time;durP1;ratioP1;P1;durP2;ratioP2;P2;SDS_P1;SDS_P2;PMS_P1;PMS_P2;Temp;Humidity;BMP_temperature;BMP_pressure;BME280_temperature;BME280_humidity;BME280_pressure;Samples;Min_cycle;Max_cycle;Signal;HPM_P1;HPM_P2
2022/10/23 00:01:36;;;;;;;5.18;1.08;;;;;;;14.84;84.72;99773.22;5030302;28;20366;-85
2022/10/23 00:04:14;;;;;;;7.75;2.15;;;;;;;14.87;84.28;99767.16;5029940;28;20061;-83
2022/10/23 00:06:40;;;;;;;8.45;1.92;;;;;;;14.97;83.93;99769.75;5030299;28;20073;-85
2022/10/23 00:09:07;;;;;;;4.20;1.65;;;;;;;14.91;83.93;99770.91;5030284;28;20072;-84
2022/10/23 00:11:33;;;;;;;23.60;3.55;;;;;;;14.89;84.11;99775.91;5030397;28;20029;-84
2022/10/23 00:14:00;;;;;;;5.28;1.92;;;;;;;14.97;83.80;99767.00;5030209;28;20056;-83
2022/10/23 00:16:27;;;;;;;8.65;2.20;;;;;;;15.09;83.13;99774.00;5029923;28;20037;-85
2022/10/23 00:18:52;;;;;;;12.10;2.92;;;;;;;15.12;82.94;99773.41;5029919;28;20035;-85
2022/10/23 00:21:17;;;;;;;4.60;1.33;;;;;;;15.07;83.13;99765.25;5030135;28;20029;-80
2022/10/23 00:23:43;;;;;;;5.70;2.15;;;;;;;14.97;83.54;99771.69;5029652;28;20057;-84
2022/10/23 00:26:10;;;;;;;7.28;1.92;;;;;;;14.77;84.41;99768.03;5030358;28;20029;-85
2022/10/23 00:28:36;;;;;;;4.10;1.60;;;;;;;14.95;83.75;99780.22;5030304;28;20494;-84
2022/10/23 00:31:04;;;;;;;10.50;2.28;;;;;;;14.98;83.55;99782.38;5030299;28;20482;-82
2022/10/23 00:33:30;;;;;;;13.07;3.45;;;;;;;15.02;83.11;99775.19;5029375;28;20049;-84
2022/10/23 00:35:55;;;;;;;5.85;1.90;;;;;;;14.99;83.51;99775.75;5030537;28;20390;-84
2022/10/23 00:38:20;;;;;;;9.93;3.80;;;;;;;14.98;82.99;99778.81;5030165;28;20053;-85
2022/10/23 00:40:45;;;;;;;11.73;4.37;;;;;;;15.01;83.26;99776.28;5029848;28;20250;-85
2022/10/23 00:43:23;;;;;;;10.25;2.17;;;;;;;14.97;83.02;99772.50;5029864;28;20282;-84
2022/10/23 00:45:49;;;;;;;6.65;1.55;;;;;;;14.79;84.20;99774.88;5029829;28;20040;-84
2022/10/23 00:48:15;;;;;;;6.82;2.33;;;;;;;14.75;84.52;99768.34;5030096;28;20045;-82
2022/10/23 00:50:41;;;;;;;5.90;2.53;;;;;;;14.64;84.95;99769.59;5030306;28;20150;-84
2022/10/23 00:53:08;;;;;;;6.78;2.28;;;;;;;14.81;84.30;99780.91;5029532;28;20120;-84
2022/10/23 00:55:37;;;;;;;4.82;2.25;;;;;;;14.80;84.53;99778.44;5030554;28;20084;-82
2022/10/23 00:58:03;;;;;;;8.52;1.50;;;;;;;14.86;83.94;99787.47;5029367;28;20053;-85
2022/10/23 01:00:45;;;;;;;4.65;1.70;;;;;;;14.76;84.34;99783.72;5012587;28;20036;-85
2022/10/23 01:03:14;;;;;;;5.35;2.90;;;;;;;14.82;84.17;99771.56;5029045;28;20077;-87
2022/10/23 01:05:56;;;;;;;7.47;2.70;;;;;;;14.67;84.81;99774.47;5029744;28;20041;-85
2022/10/23 01:08:34;;;;;;;4.82;2.00;;;;;;;14.78;83.90;99764.22;5029456;28;20041;-85
2022/10/23 01:11:29;;;;;;;4.13;1.70;;;;;;;14.65;84.68;99771.22;5031212;28;20036;-84
2022/10/23 01:13:57;;;;;;;5.32;1.83;;;;;;;14.62;85.10;99769.06;5032718;28;20041;-82
2022/10/23 01:16:30;;;;;;;12.00;2.90;;;;;;;14.85;84.18;99758.41;5033447;28;20037;-86
2022/10/23 01:19:34;;;;;;;4.03;1.08;;;;;;;14.80;84.26;99759.25;5033360;28;20041;-85
2022/10/23 01:22:13;;;;;;;7.15;1.98;;;;;;;14.75;84.25;99754.63;5033184;28;20038;-82
2022/10/23 01:24:58;;;;;;;8.80;2.45;;;;;;;14.75;84.41;99749.13;5032492;28;20065;-83
2022/10/23 01:27:37;;;;;;;4.85;2.00;;;;;;;14.79;84.50;99754.84;5033377;28;20041;-84
2022/10/23 01:30:09;;;;;;;10.95;3.08;;;;;;;14.83;84.37;99758.69;5033174;28;20030;-83
2022/10/23 01:32:43;;;;;;;14.63;2.80;;;;;;;14.86;84.09;99746.31;5032359;28;20052;-85
2022/10/23 01:35:18;;;;;;;6.68;2.22;;;;;;;14.84;84.41;99752.09;5033004;28;20029;-83
2022/10/23 01:38:08;;;;;;;5.07;1.77;;;;;;;14.84;84.38;99749.34;5032996;28;20033;-84
2022/10/23 01:41:01;;;;;;;6.45;2.85;;;;;;;14.68;85.23;99743.19;5032661;28;20493;-85
2022/10/23 01:43:35;;;;;;;4.55;1.60;;;;;;;14.77;84.40;99741.44;5023903;28;20045;-84
2022/10/23 01:46:06;;;;;;;6.85;1.65;;;;;;;14.71;85.13;99739.84;5032784;28;20043;-85
2022/10/23 01:48:33;;;;;;;5.00;1.98;;;;;;;14.68;85.08;99743.19;5032561;28;20382;-85
2022/10/23 01:51:02;;;;;;;6.15;1.58;;;;;;;14.89;84.43;99732.00;5013006;28;20026;-82
2022/10/23 01:53:30;;;;;;;6.25;2.08;;;;;;;14.97;83.82;99734.06;5024868;28;20158;-85
2022/10/23 01:55:57;;;;;;;8.15;1.90;;;;;;;14.89;83.71;99727.31;5032600;28;20392;-84
2022/10/23 01:58:25;;;;;;;4.70;1.88;;;;;;;14.77;84.74;99719.47;5032201;28;20034;-83
2022/10/23 02:00:54;;;;;;;8.35;2.10;;;;;;;14.93;84.25;99724.78;5032382;28;20717;-85
2022/10/23 02:03:21;;;;;;;6.07;1.85;;;;;;;14.89;84.25;99719.06;5031108;28;20029;-83
2022/10/23 02:05:46;;;;;;;4.55;1.10;;;;;;;14.93;84.08;99713.81;5032591;28;20037;-84
2022/10/23 02:08:12;;;;;;;8.77;2.78;;;;;;;14.98;83.84;99705.53;5031505;28;20091;-85
2022/10/23 02:10:40;;;;;;;6.43;1.50;;;;;;;14.97;83.85;99709.34;5031344;28;20095;-85
2022/10/23 02:13:12;;;;;;;16.30;2.08;;;;;;;14.86;84.37;99694.16;5031822;28;20040;-85
2022/10/23 02:15:46;;;;;;;5.18;1.75;;;;;;;14.92;83.90;99692.97;5032178;28;20021;-84
2022/10/23 02:18:47;;;;;;;6.18;1.45;;;;;;;14.67;84.99;99690.25;5030532;28;20036;-84
2022/10/23 02:21:17;;;;;;;7.30;2.00;;;;;;;14.73;85.21;99688.25;5031761;28;20398;-86
2022/10/23 02:23:53;;;;;;;7.50;2.25;;;;;;;14.84;84.63;99685.41;5030855;28;20044;-84
2022/10/23 02:26:35;;;;;;;10.90;2.75;;;;;;;14.90;84.55;99686.97;5032616;28;20034;-85
2022/10/23 02:29:08;;;;;;;3.80;1.83;;;;;;;14.83;84.79;99679.09;5031775;28;20030;-84
2022/10/23 02:31:33;;;;;;;12.55;2.28;;;;;;;14.80;84.73;99683.22;5031390;28;20033;-85
2022/10/23 02:33:59;;;;;;;7.85;1.95;;;;;;;14.84;84.58;99677.16;5031094;28;20037;-84
2022/10/23 02:36:24;;;;;;;5.47;1.75;;;;;;;14.85;84.54;99676.06;5032341;28;20033;-83
2022/10/23 02:38:49;;;;;;;4.10;1.93;;;;;;;14.85;84.72;99684.31;5031623;28;20103;-86
2022/10/23 02:41:23;;;;;;;3.72;1.55;;;;;;;14.74;85.30;99680.84;5031263;28;20254;-85
2022/10/23 02:44:16;;;;;;;12.75;3.45;;;;;;;14.68;85.55;99674.63;5031562;28;20347;-80
2022/10/23 02:46:50;;;;;;;8.73;2.03;;;;;;;14.82;85.05;99678.25;5031959;28;20179;-85
2022/10/23 02:49:24;;;;;;;5.88;2.08;;;;;;;14.73;85.21;99659.97;5031894;28;20040;-84
2022/10/23 02:52:02;;;;;;;5.05;2.22;;;;;;;14.82;85.13;99660.97;5031698;28;20466;-84
2022/10/23 02:54:45;;;;;;;6.13;1.67;;;;;;;14.89;84.87;99661.44;5012148;28;20117;-85
2022/10/23 02:57:34;;;;;;;5.35;1.35;;;;;;;14.96;84.56;99650.09;5011430;28;20109;-85
2022/10/23 02:59:59;;;;;;;8.15;2.10;;;;;;;14.96;84.51;99652.84;5011706;28;20669;-86
2022/10/23 03:02:31;;;;;;;7.50;2.03;;;;;;;14.94;84.77;99647.66;5015230;28;20035;-85
2022/10/23 03:04:59;;;;;;;8.48;2.38;;;;;;;14.98;84.49;99650.63;5013424;28;20034;-86
2022/10/23 03:07:25;;;;;;;8.38;2.53;;;;;;;15.02;84.32;99650.84;5031493;28;20085;-85
2022/10/23 03:09:50;;;;;;;3.80;1.88;;;;;;;15.03;84.45;99650.53;5031354;28;20072;-83
2022/10/23 03:12:15;;;;;;;7.20;1.77;;;;;;;15.00;84.36;99644.81;5030851;28;20124;-84
2022/10/23 03:14:41;;;;;;;4.97;2.00;;;;;;;14.89;85.09;99649.66;5031044;28;20259;-85
2022/10/23 03:17:06;;;;;;;3.90;1.47;;;;;;;15.00;84.77;99642.09;5031370;28;20481;-84
2022/10/23 03:19:31;;;;;;;5.00;1.60;;;;;;;15.00;84.60;99642.91;5030463;28;20278;-84
2022/10/23 03:21:56;;;;;;;4.53;1.73;;;;;;;15.12;83.75;99636.13;5030378;28;20083;-84
2022/10/23 03:24:22;;;;;;;3.30;1.20;;;;;;;15.19;83.27;99638.50;5030548;28;20110;-86
2022/10/23 03:26:47;;;;;;;3.03;1.30;;;;;;;15.13;83.60;99635.03;5031040;28;20262;-84
2022/10/23 03:29:12;;;;;;;7.87;1.50;;;;;;;15.03;83.79;99625.03;5030126;28;20358;-83
2022/10/23 03:31:37;;;;;;;5.05;1.20;;;;;;;15.14;83.63;99620.19;5030587;28;20285;-84
2022/10/23 03:34:08;;;;;;;9.17;1.33;;;;;;;15.11;83.96;99613.34;5029393;28;20037;-85
2022/10/23 03:36:34;;;;;;;5.00;2.03;;;;;;;15.06;83.89;99610.69;5030532;28;20333;-85
2022/10/23 03:38:59;;;;;;;4.75;1.88;;;;;;;15.08;83.78;99613.13;5030805;28;20064;-85
2022/10/23 03:41:24;;;;;;;9.40;1.55;;;;;;;15.17;82.73;99605.88;5030739;28;20038;-83
2022/10/23 03:43:49;;;;;;;4.80;1.70;;;;;;;15.01;83.99;99616.28;5030378;28;20044;-83
2022/10/23 03:46:15;;;;;;;5.60;1.87;;;;;;;15.07;83.82;99608.78;5030630;28;20255;-84
2022/10/23 03:48:40;;;;;;;3.33;1.30;;;;;;;14.96;83.90;99606.19;5030407;28;20281;-82
2022/10/23 03:51:06;;;;;;;3.97;1.55;;;;;;;14.91;84.54;99614.47;5030278;28;20037;-84
2022/10/23 03:53:32;;;;;;;5.47;1.75;;;;;;;14.96;84.13;99605.34;5029633;28;20035;-85
2022/10/23 03:55:57;;;;;;;6.20;2.05;;;;;;;14.89;84.40;99601.06;5030016;28;20281;-84
2022/10/23 03:58:22;;;;;;;4.47;1.40;;;;;;;14.82;84.86;99598.69;5029948;28;20032;-85
2022/10/23 04:00:48;;;;;;;13.43;1.92;;;;;;;14.74;85.15;99593.84;5012752;28;20294;-86
2022/10/23 04:03:13;;;;;;;3.53;1.57;;;;;;;14.73;85.20;99594.97;5029730;28;20041;-83
2022/10/23 04:05:40;;;;;;;3.08;1.38;;;;;;;14.70;85.86;99590.06;5030438;28;20735;-83
2022/10/23 04:08:06;;;;;;;8.40;1.55;;;;;;;14.74;85.33;99588.38;5029633;28;20053;-84
2022/10/23 04:10:31;;;;;;;13.93;1.88;;;;;;;14.66;85.39;99597.28;5029609;28;20500;-86
2022/10/23 04:12:56;;;;;;;4.20;1.37;;;;;;;14.79;85.09;99584.72;5030341;28;20087;-85
2022/10/23 04:15:21;;;;;;;4.80;2.00;;;;;;;14.73;85.30;99586.72;5030198;28;20273;-86
2022/10/23 04:17:46;;;;;;;4.40;1.50;;;;;;;14.71;85.24;99594.44;5029718;28;20275;-82
2022/10/23 04:20:12;;;;;;;10.00;2.47;;;;;;;14.72;85.41;99590.59;5030090;28;20454;-84
2022/10/23 04:22:37;;;;;;;5.88;2.15;;;;;;;14.79;85.25;99603.91;5029703;28;20258;-84
2022/10/23 04:25:03;;;;;;;6.05;2.03;;;;;;;14.63;85.92;99600.59;5029146;28;20414;-84
2022/10/23 04:27:28;;;;;;;6.75;2.13;;;;;;;14.65;85.93;99593.69;5029774;28;20033;-82
2022/10/23 04:29:53;;;;;;;5.15;1.65;;;;;;;14.59;86.32;99594.88;5030143;28;20112;-86
2022/10/23 04:32:18;;;;;;;9.90;2.07;;;;;;;14.60;86.09;99596.53;5029300;28;20056;-85
2022/10/23 04:34:44;;;;;;;6.53;1.97;;;;;;;14.69;85.84;99594.75;5029848;28;20274;-84
2022/10/23 04:37:09;;;;;;;3.57;1.30;;;;;;;14.65;85.91;99588.22;5029602;28;20301;-83
2022/10/23 04:39:34;;;;;;;2.77;1.03;;;;;;;14.73;85.20;99586.72;5029794;28;20691;-84
2022/10/23 04:41:59;;;;;;;7.70;2.28;;;;;;;14.71;85.44;99584.28;5029436;28;20269;-84
2022/10/23 04:44:25;;;;;;;9.07;1.23;;;;;;;14.63;85.68;99586.88;5029226;28;20045;-83
2022/10/23 04:46:50;;;;;;;8.33;3.17;;;;;;;14.50;86.55;99581.03;5032532;28;20320;-83
2022/10/23 04:49:15;;;;;;;6.07;1.60;;;;;;;14.48;86.30;99581.31;5033168;28;20305;-84
2022/10/23 04:51:40;;;;;;;3.60;1.90;;;;;;;14.62;86.16;99579.78;5033686;28;20251;-84
2022/10/23 04:54:06;;;;;;;4.97;2.00;;;;;;;14.57;85.89;99575.97;5033184;28;20258;-83
2022/10/23 04:56:31;;;;;;;4.37;1.93;;;;;;;14.42;86.55;99579.75;5033554;28;20270;-84
2022/10/23 04:58:56;;;;;;;3.57;1.50;;;;;;;14.37;86.85;99574.34;5033427;28;20702;-84
2022/10/23 05:01:21;;;;;;;2.63;1.25;;;;;;;14.32;86.67;99569.72;5033088;28;20271;-85
2022/10/23 05:03:47;;;;;;;5.03;1.30;;;;;;;14.29;86.88;99570.34;5032760;28;20037;-83
2022/10/23 05:06:12;;;;;;;16.70;3.07;;;;;;;14.31;86.91;99559.91;5033069;28;20757;-83
2022/10/23 05:08:37;;;;;;;6.83;2.23;;;;;;;14.52;86.12;99558.78;5033170;28;20250;-84
2022/10/23 05:11:03;;;;;;;13.70;3.35;;;;;;;14.55;86.01;99553.53;5033692;28;20270;-84
2022/10/23 05:13:28;;;;;;;8.27;2.25;;;;;;;14.47;86.35;99551.44;5032611;28;20052;-84
2022/10/23 05:15:53;;;;;;;20.42;2.42;;;;;;;14.60;86.26;99552.63;5033267;28;20038;-85
2022/10/23 05:18:31;;;;;;;11.90;2.58;;;;;;;14.64;85.94;99552.84;5032764;28;20099;-81
2022/10/23 05:21:04;;;;;;;2.53;1.38;;;;;;;14.75;85.46;99553.50;5013478;28;20097;-87
2022/10/23 05:23:32;;;;;;;10.68;2.45;;;;;;;14.73;85.45;99548.31;5025401;28;20029;-84
2022/10/23 05:25:58;;;;;;;5.55;1.67;;;;;;;14.67;86.16;99560.47;5033690;28;20052;-86
2022/10/23 05:28:23;;;;;;;7.72;1.63;;;;;;;14.86;85.32;99548.69;5033097;28;20497;-85
2022/10/23 05:30:49;;;;;;;7.40;2.63;;;;;;;14.90;84.95;99541.50;5015673;28;20063;-85
2022/10/23 05:33:14;;;;;;;5.40;1.75;;;;;;;14.93;84.94;99535.41;5042587;28;20261;-87
2022/10/23 05:35:41;;;;;;;4.43;1.55;;;;;;;14.89;85.17;99540.69;5052737;28;20392;-84
2022/10/23 05:38:07;;;;;;;3.97;1.20;;;;;;;14.71;86.06;99545.88;5052848;28;20081;-83
2022/10/23 05:40:32;;;;;;;4.25;1.48;;;;;;;14.74;86.16;99546.38;5052674;28;20029;-83
2022/10/23 05:42:58;;;;;;;6.50;1.38;;;;;;;14.69;86.39;99541.78;5042238;28;20037;-86
2022/10/23 05:45:23;;;;;;;3.08;1.38;;;;;;;14.80;85.77;99537.78;5032417;28;20398;-84
2022/10/23 05:47:48;;;;;;;7.20;1.42;;;;;;;14.77;86.13;99535.63;5032402;28;20041;-81
2022/10/23 05:50:14;;;;;;;3.38;1.33;;;;;;;14.68;86.49;99534.69;5032312;28;20528;-85
2022/10/23 05:52:39;;;;;;;5.60;1.83;;;;;;;14.72;86.36;99532.97;5032380;28;20041;-83
2022/10/23 05:55:05;;;;;;;9.77;1.53;;;;;;;14.78;86.05;99528.22;5032606;28;20059;-84
2022/10/23 05:57:33;;;;;;;4.10;1.52;;;;;;;14.85;85.67;99527.88;5032266;28;20250;-82
2022/10/23 05:59:59;;;;;;;4.22;1.20;;;;;;;14.74;86.34;99517.03;5032801;28;20029;-85
2022/10/23 06:02:24;;;;;;;9.13;1.80;;;;;;;14.72;86.66;99516.50;5032682;28;20044;-85
2022/10/23 06:04:49;;;;;;;5.97;2.25;;;;;;;14.71;86.38;99496.50;5032048;28;20378;-84
2022/10/23 06:07:15;;;;;;;11.82;1.70;;;;;;;14.75;85.86;99502.19;5032019;28;20052;-85
2022/10/23 06:09:40;;;;;;;3.72;1.58;;;;;;;14.73;86.03;99509.91;5032050;28;20037;-86
2022/10/23 06:12:05;;;;;;;5.03;1.40;;;;;;;14.75;85.90;99504.09;5032133;28;20029;-83
2022/10/23 06:14:31;;;;;;;3.83;1.63;;;;;;;14.75;86.00;99496.69;5032382;28;20328;-83
2022/10/23 06:16:56;;;;;;;6.57;1.63;;;;;;;14.65;86.20;99491.38;5032132;28;20040;-86
2022/10/23 06:19:21;;;;;;;5.50;2.23;;;;;;;14.71;85.97;99495.66;5031707;28;20267;-84
2022/10/23 06:21:46;;;;;;;5.67;1.80;;;;;;;14.78;85.71;99495.28;5032401;28;20251;-84
2022/10/23 06:24:12;;;;;;;11.60;2.60;;;;;;;14.82;85.34;99491.66;5031393;28;20263;-86
2022/10/23 06:26:37;;;;;;;4.82;1.52;;;;;;;14.86;85.18;99489.16;5032265;28;20728;-85
2022/10/23 06:29:03;;;;;;;3.13;1.20;;;;;;;14.89;84.78;99485.78;5032010;28;20064;-84
2022/10/23 06:31:28;;;;;;;6.18;1.45;;;;;;;14.82;85.22;99486.16;5031807;28;20274;-81
2022/10/23 06:33:54;;;;;;;8.00;1.60;;;;;;;14.90;84.74;99486.63;5030867;28;20049;-80
2022/10/23 06:36:20;;;;;;;23.60;3.42;;;;;;;14.86;85.09;99491.06;5032076;28;20091;-83
2022/10/23 06:38:45;;;;;;;5.20;1.38;;;;;;;14.88;84.47;99489.66;5031984;28;20033;-83
2022/10/23 06:41:14;;;;;;;4.07;1.50;;;;;;;14.86;84.83;99485.59;5022525;28;20036;-86
2022/10/23 06:43:40;;;;;;;3.08;0.93;;;;;;;14.91;84.54;99490.97;5022308;28;20748;-81
2022/10/23 06:46:05;;;;;;;3.60;1.50;;;;;;;14.92;84.55;99489.88;5022493;28;20033;-84
2022/10/23 06:48:31;;;;;;;5.35;1.63;;;;;;;15.00;83.56;99491.94;5020757;28;20053;-83
2022/10/23 06:50:57;;;;;;;4.53;1.20;;;;;;;14.98;84.02;99493.34;5023743;28;20066;-84
2022/10/23 06:53:23;;;;;;;6.60;1.17;;;;;;;14.98;83.46;99488.66;5023400;28;20041;-83
2022/10/23 06:55:50;;;;;;;4.47;1.13;;;;;;;15.03;83.64;99485.81;5020218;28;20056;-82
2022/10/23 06:58:15;;;;;;;3.08;0.98;;;;;;;15.02;83.49;99489.69;5011862;28;20030;-82
2022/10/23 07:00:40;;;;;;;2.88;1.48;;;;;;;15.07;83.42;99493.47;5011647;28;20460;-80
2022/10/23 07:03:07;;;;;;;4.90;1.07;;;;;;;15.13;82.31;99487.56;5020986;28;20076;-87
2022/10/23 07:05:32;;;;;;;3.28;1.33;;;;;;;15.13;82.36;99490.31;5030920;28;20759;-84
2022/10/23 07:07:58;;;;;;;4.68;2.30;;;;;;;15.10;82.63;99487.38;5013521;28;20080;-81
2022/10/23 07:10:23;;;;;;;4.43;1.70;;;;;;;15.17;82.11;99485.06;5031258;28;20103;-82
2022/10/23 07:12:48;;;;;;;6.50;1.55;;;;;;;15.14;81.96;99491.13;5031067;28;20263;-80
2022/10/23 07:15:15;;;;;;;5.63;1.10;;;;;;;15.21;81.60;99485.25;5031595;28;20038;-82
2022/10/23 07:17:40;;;;;;;9.38;2.55;;;;;;;15.19;81.67;99477.34;5031565;28;20278;-82
2022/10/23 07:20:06;;;;;;;3.08;0.95;;;;;;;15.23;81.25;99483.84;5031735;28;20445;-80
2022/10/23 07:22:31;;;;;;;5.32;1.40;;;;;;;15.12;81.56;99471.41;5031002;28;20437;-81
2022/10/23 07:24:56;;;;;;;8.67;1.70;;;;;;;15.12;81.53;99476.91;5031335;28;20048;-82
2022/10/23 07:27:22;;;;;;;3.83;1.15;;;;;;;15.09;81.70;99474.78;5022753;28;20251;-82
2022/10/23 07:29:51;;;;;;;7.55;1.30;;;;;;;15.12;81.36;99472.22;5020719;28;20044;-81
2022/10/23 07:32:17;;;;;;;6.72;1.20;;;;;;;15.17;81.30;99485.06;5022298;28;20041;-81
2022/10/23 07:34:42;;;;;;;7.60;2.15;;;;;;;15.18;81.15;99481.19;5021107;28;20037;-82
2022/10/23 07:37:07;;;;;;;4.27;1.10;;;;;;;15.29;80.98;99477.13;5021484;28;20030;-80
2022/10/23 07:39:32;;;;;;;6.97;1.77;;;;;;;15.36;80.54;99476.72;5025370;28;20297;-82
2022/10/23 07:41:58;;;;;;;4.47;1.80;;;;;;;15.29;81.02;99477.13;5031185;28;20683;-83
2022/10/23 07:44:23;;;;;;;4.10;1.77;;;;;;;15.31;80.95;99476.00;5030244;28;20271;-81
2022/10/23 07:46:48;;;;;;;2.78;1.00;;;;;;;15.28;80.62;99470.00;5029356;28;20029;-82
2022/10/23 07:49:14;;;;;;;4.43;2.20;;;;;;;15.26;80.20;99464.00;5018682;28;20036;-82
2022/10/23 07:51:39;;;;;;;4.43;1.37;;;;;;;15.39;80.25;99464.31;5027819;28;20289;-84
2022/10/23 07:54:06;;;;;;;9.43;1.83;;;;;;;15.36;80.48;99464.91;5028900;28;20362;-82
2022/10/23 07:56:31;;;;;;;6.40;1.83;;;;;;;15.46;80.37;99464.72;5030458;28;20262;-82
2022/10/23 07:58:57;;;;;;;3.65;1.80;;;;;;;15.49;80.13;99464.13;5030516;28;20071;-83
2022/10/23 08:01:33;;;;;;;9.60;2.03;;;;;;;15.50;80.13;99465.75;5029000;28;20081;-83
2022/10/23 08:03:59;;;;;;;3.13;1.38;;;;;;;15.50;80.04;99459.41;5029900;28;20778;-81
2022/10/23 08:06:25;;;;;;;4.35;1.25;;;;;;;15.49;80.15;99458.63;5030521;28;20061;-83
2022/10/23 08:08:50;;;;;;;2.80;1.00;;;;;;;15.58;79.76;99464.19;5030267;28;20041;-83
2022/10/23 08:11:23;;;;;;;6.05;1.48;;;;;;;15.56;80.20;99462.91;5013071;28;20868;-82
2022/10/23 08:13:49;;;;;;;10.05;1.13;;;;;;;15.63;79.42;99453.13;5030298;28;20029;-84
2022/10/23 08:16:14;;;;;;;3.47;1.33;;;;;;;15.68;78.93;99449.44;5030539;28;20034;-82
2022/10/23 08:18:41;;;;;;;2.53;1.47;;;;;;;15.74;79.28;99448.22;5030550;28;20525;-83
2022/10/23 08:21:07;;;;;;;3.05;0.95;;;;;;;15.69;79.42;99444.75;5030572;28;20265;-83
2022/10/23 08:23:32;;;;;;;4.53;0.82;;;;;;;15.81;78.40;99446.97;5029989;28;20445;-84
2022/10/23 08:26:00;;;;;;;3.65;1.30;;;;;;;15.90;78.26;99438.84;5030563;28;20025;-83
2022/10/23 08:28:26;;;;;;;3.25;1.25;;;;;;;15.96;78.05;99438.41;5030624;28;20037;-83
2022/10/23 08:30:52;;;;;;;4.78;1.55;;;;;;;15.94;78.09;99439.84;5030796;28;20033;-85
2022/10/23 08:33:17;;;;;;;4.32;1.67;;;;;;;16.05;77.68;99429.47;5028393;28;20029;-84
2022/10/23 08:35:42;;;;;;;3.97;1.10;;;;;;;16.07;77.65;99427.19;5029992;28;20033;-83
2022/10/23 08:38:09;;;;;;;1.90;0.97;;;;;;;16.18;77.88;99425.84;5030189;28;20033;-83
2022/10/23 08:40:35;;;;;;;2.97;1.02;;;;;;;16.26;78.01;99424.28;5030744;28;20739;-85
2022/10/23 08:43:07;;;;;;;3.20;0.63;;;;;;;16.32;76.86;99427.72;5027426;28;20056;-84
2022/10/23 08:45:39;;;;;;;4.53;1.52;;;;;;;16.37;76.82;99427.63;5010404;28;20113;-84
2022/10/23 08:48:22;;;;;;;3.53;1.25;;;;;;;16.48;76.62;99425.41;5010570;28;20061;-82
2022/10/23 08:51:10;;;;;;;5.17;2.00;;;;;;;16.62;76.11;99424.56;5023802;28;20076;-83
2022/10/23 08:53:43;;;;;;;5.70;1.45;;;;;;;16.68;76.09;99435.09;5023482;28;20279;-83
2022/10/23 08:56:19;;;;;;;3.38;0.80;;;;;;;16.67;74.70;99418.91;5030529;28;20410;-82
2022/10/23 08:58:54;;;;;;;2.55;0.95;;;;;;;16.79;74.89;99416.38;5030573;28;20247;-85
2022/10/23 09:01:48;;;;;;;4.10;1.15;;;;;;;16.77;75.22;99404.88;5043047;28;20044;-82
2022/10/23 09:04:15;;;;;;;5.30;1.48;;;;;;;16.92;74.10;99394.59;5024931;28;20030;-82
2022/10/23 09:06:46;;;;;;;6.63;1.05;;;;;;;16.85;73.99;99400.53;5010325;28;20054;-83
2022/10/23 09:09:30;;;;;;;3.47;1.20;;;;;;;16.86;73.42;99395.88;5018739;28;20379;-85
2022/10/23 09:12:14;;;;;;;3.30;1.50;;;;;;;16.91;73.08;99392.97;5023240;28;20184;-83
2022/10/23 09:15:07;;;;;;;2.85;1.13;;;;;;;16.92;73.77;99394.59;5011246;28;20065;-85
2022/10/23 09:17:36;;;;;;;5.32;1.08;;;;;;;16.96;73.02;99394.78;5029001;28;20056;-85
2022/10/23 09:20:21;;;;;;;7.90;1.58;;;;;;;17.00;73.54;99398.50;5029030;28;20052;-84
2022/10/23 09:22:48;;;;;;;4.78;0.85;;;;;;;17.05;73.42;99395.59;5028661;28;20059;-84
2022/10/23 09:25:20;;;;;;;2.30;0.75;;;;;;;17.14;72.87;99396.50;5029105;28;20034;-85
2022/10/23 09:27:48;;;;;;;4.03;0.77;;;;;;;17.17;72.41;99383.22;5028937;28;20072;-84
2022/10/23 09:30:37;;;;;;;4.05;1.02;;;;;;;17.04;71.85;99382.97;5029073;28;20128;-84
2022/10/23 09:33:21;;;;;;;4.13;1.10;;;;;;;17.08;72.17;99386.72;5031256;28;20585;-82
2022/10/23 09:36:14;;;;;;;4.43;1.13;;;;;;;16.99;72.67;99372.91;5032803;28;20061;-83
2022/10/23 09:38:45;;;;;;;3.67;1.10;;;;;;;17.08;71.42;99353.69;5032433;28;20034;-84
2022/10/23 09:41:21;;;;;;;2.38;0.95;;;;;;;17.03;71.85;99359.31;5032578;28;20037;-85
2022/10/23 09:43:58;;;;;;;3.55;1.73;;;;;;;17.07;71.67;99365.81;5032296;28;20120;-85
2022/10/23 09:46:24;;;;;;;9.40;1.90;;;;;;;16.97;71.77;99346.81;5033011;28;20563;-85
2022/10/23 09:48:57;;;;;;;26.52;1.77;;;;;;;17.04;71.02;99347.19;5033306;28;20034;-84
2022/10/23 09:51:22;;;;;;;3.30;0.57;;;;;;;17.00;71.29;99335.19;5033588;28;20033;-85
2022/10/23 09:53:54;;;;;;;2.55;0.70;;;;;;;17.08;71.30;99347.34;5032660;28;20033;-84
2022/10/23 09:56:32;;;;;;;7.30;1.67;;;;;;;17.06;70.96;99349.63;5033072;28;20064;-84
2022/10/23 09:58:58;;;;;;;4.40;0.80;;;;;;;17.11;71.05;99341.19;5032909;28;20090;-83
2022/10/23 10:01:27;;;;;;;4.40;1.80;;;;;;;17.13;70.92;99345.28;5040884;28;20124;-84
2022/10/23 10:03:52;;;;;;;4.10;1.15;;;;;;;17.21;70.86;99345.63;5036359;28;20037;-83
2022/10/23 10:06:29;;;;;;;3.60;1.00;;;;;;;17.29;70.77;99346.81;5032479;28;20053;-83
2022/10/23 10:09:01;;;;;;;4.80;0.98;;;;;;;17.25;71.04;99341.09;5032432;28;20033;-85
2022/10/23 10:11:41;;;;;;;4.20;1.27;;;;;;;17.23;70.52;99329.59;5015088;28;20043;-82
2022/10/23 10:14:39;;;;;;;1.95;0.60;;;;;;;17.22;70.84;99330.72;5032719;28;20034;-83
2022/10/23 10:17:24;;;;;;;5.45;1.42;;;;;;;17.33;70.55;99323.78;5032856;28;20118;-84
2022/10/23 10:19:55;;;;;;;3.80;1.25;;;;;;;17.36;70.89;99319.59;5032719;28;20064;-84
2022/10/23 10:22:26;;;;;;;5.60;1.17;;;;;;;17.40;71.21;99323.31;5032095;28;20026;-85
2022/10/23 10:25:01;;;;;;;2.05;0.70;;;;;;;17.42;70.95;99325.75;5032899;28;20025;-84
2022/10/23 10:27:42;;;;;;;3.20;0.93;;;;;;;17.38;70.54;99322.81;5032577;28;20021;-84
2022/10/23 10:30:13;;;;;;;3.78;1.00;;;;;;;17.43;70.51;99324.63;5032695;28;20042;-83
2022/10/23 10:32:45;;;;;;;2.20;0.95;;;;;;;17.46;70.77;99312.94;5032109;28;20478;-83
2022/10/23 10:35:45;;;;;;;1.17;0.75;;;;;;;17.33;71.39;99310.00;5032281;28;20033;-84
2022/10/23 10:38:41;;;;;;;4.05;0.95;;;;;;;17.45;71.44;99294.81;5032463;28;20116;-84
2022/10/23 10:41:27;;;;;;;7.30;1.15;;;;;;;17.48;71.14;99294.16;5032628;28;20359;-83
2022/10/23 10:44:20;;;;;;;4.75;1.05;;;;;;;17.55;71.19;99294.50;5031134;28;20120;-84
2022/10/23 10:47:06;;;;;;;8.00;1.70;;;;;;;17.56;71.23;99292.53;5032073;28;20046;-84
2022/10/23 10:49:41;;;;;;;9.50;1.80;;;;;;;17.60;71.35;99291.56;5032025;28;20048;-85
2022/10/23 10:52:25;;;;;;;3.88;0.90;;;;;;;17.61;71.26;99284.13;5026227;28;20029;-82
2022/10/23 10:55:12;;;;;;;4.15;1.23;;;;;;;17.57;71.64;99288.66;5020081;28;20037;-79
2022/10/23 10:57:41;;;;;;;5.25;1.48;;;;;;;17.60;71.69;99280.53;5011917;28;20044;-86
2022/10/23 11:00:16;;;;;;;5.35;1.27;;;;;;;17.64;71.01;99279.88;5012123;28;20057;-87
2022/10/23 11:02:46;;;;;;;3.17;0.95;;;;;;;17.70;70.94;99279.41;5021115;28;20479;-85
2022/10/23 11:05:20;;;;;;;6.05;1.55;;;;;;;17.72;70.86;99285.41;5012467;28;20037;-85
2022/10/23 11:07:57;;;;;;;3.53;1.33;;;;;;;17.74;70.93;99271.28;5017709;28;20049;-88
2022/10/23 11:10:22;;;;;;;3.53;1.42;;;;;;;17.72;70.87;99254.25;5021587;28;20425;-89
2022/10/23 11:12:48;;;;;;;3.53;1.23;;;;;;;17.79;70.66;99248.25;5031915;28;20049;-86
2022/10/23 11:15:17;;;;;;;4.90;1.35;;;;;;;17.81;70.73;99233.03;5032105;28;20029;-85
2022/10/23 11:17:47;;;;;;;7.05;1.92;;;;;;;17.81;70.18;99235.78;5029683;28;20132;-83
2022/10/23 11:20:42;;;;;;;2.20;0.60;;;;;;;17.81;69.67;99227.50;5031606;28;20451;-82
2022/10/23 11:23:49;;;;;;;6.15;1.23;;;;;;;17.84;69.75;99215.81;5029155;28;20091;-83
2022/10/23 11:26:50;;;;;;;4.40;1.13;;;;;;;17.87;69.54;99216.28;4975946;28;20464;-84
2022/10/23 11:29:39;;;;;;;7.65;1.15;;;;;;;17.94;69.06;99222.13;4967971;28;20069;-86
2022/10/23 11:32:43;;;;;;;4.68;0.80;;;;;;;17.95;69.96;99207.19;5025691;28;20128;-87
2022/10/23 11:35:39;;;;;;;3.65;1.00;;;;;;;18.03;69.69;99203.59;5001057;28;20042;-83
2022/10/23 11:38:15;;;;;;;5.88;1.08;;;;;;;18.00;69.47;99184.94;5030996;28;20441;-84
2022/10/23 11:40:48;;;;;;;4.53;0.98;;;;;;;17.96;68.62;99176.53;5031689;28;20485;-84
2022/10/23 11:43:35;;;;;;;5.43;1.27;;;;;;;18.01;68.77;99172.78;5030763;28;20553;-82
2022/10/23 11:46:28;;;;;;;2.92;1.00;;;;;;;17.99;68.53;99164.03;5031701;28;20048;-84
2022/10/23 11:48:54;;;;;;;3.05;0.88;;;;;;;18.03;68.46;99166.94;5031206;28;20053;-83